createdAt,value
2022-12-28T00:01:19.829Z,4.43
2022-12-28T00:03:50.226Z,4.90
2022-12-28T00:06:19.001Z,5.10
2022-12-28T00:08:47.144Z,4.83
2022-12-28T00:11:30.229Z,4.47
2022-12-28T00:14:03.334Z,5.10
2022-12-28T00:16:33.292Z,4.47
2022-12-28T00:19:04.529Z,5.40
2022-12-28T00:21:33.291Z,5.30
2022-12-28T00:24:02.518Z,5.30
2022-12-28T00:26:32.857Z,5.57
2022-12-28T00:29:05.199Z,5.10
2022-12-28T00:31:33.890Z,5.10
2022-12-28T00:34:03.870Z,5.77
2022-12-28T00:37:08.702Z,5.10
2022-12-28T00:39:21.333Z,4.93
2022-12-28T00:41:49.439Z,5.23
2022-12-28T00:44:17.460Z,5.23
2022-12-28T00:46:45.467Z,5.10
2022-12-28T00:49:14.759Z,5.10
2022-12-28T00:51:42.723Z,5.73
2022-12-28T00:54:10.805Z,5.83
2022-12-28T00:56:40.935Z,6.07
2022-12-28T00:59:08.991Z,7.07
2022-12-28T01:01:37.229Z,5.73
2022-12-28T01:04:05.723Z,6.43
2022-12-28T01:06:34.988Z,6.47
2022-12-28T01:09:03.089Z,6.60
2022-12-28T01:11:32.019Z,6.40
2022-12-28T01:14:01.649Z,6.67
2022-12-28T01:16:32.279Z,7.00
2022-12-28T01:19:02.147Z,6.77
2022-12-28T01:21:32.784Z,7.40
2022-12-28T01:24:04.421Z,8.17
2022-12-28T01:26:32.402Z,9.07
2022-12-28T01:29:00.686Z,8.10
2022-12-28T01:31:28.877Z,8.60
2022-12-28T01:33:57.230Z,8.57
2022-12-28T01:36:27.586Z,8.77
2022-12-28T01:38:57.241Z,15.50
2022-12-28T01:41:28.479Z,16.80
2022-12-28T01:44:34.004Z,15.97
2022-12-28T01:47:05.775Z,11.40
2022-12-28T01:49:38.035Z,12.23
2022-12-28T01:52:09.554Z,10.53
2022-12-28T01:54:42.748Z,9.93
2022-12-28T01:57:12.425Z,9.37
2022-12-28T01:59:43.926Z,8.97
2022-12-28T02:02:14.015Z,8.93
2022-12-28T02:04:42.187Z,7.93
2022-12-28T02:07:10.759Z,8.40
2022-12-28T02:09:40.878Z,8.30
2022-12-28T02:12:13.590Z,8.00
2022-12-28T02:14:43.249Z,7.30
2022-12-28T02:17:12.945Z,6.90
2022-12-28T02:19:45.676Z,7.60
2022-12-28T02:22:43.470Z,8.10
2022-12-28T02:25:34.547Z,10.37
2022-12-28T02:28:16.084Z,12.13
2022-12-28T02:30:53.952Z,11.40
2022-12-28T02:33:28.620Z,9.70
2022-12-28T02:36:00.396Z,10.07
2022-12-28T02:38:35.754Z,9.77
2022-12-28T02:41:09.164Z,8.40
2022-12-28T02:43:37.879Z,8.50
2022-12-28T02:46:29.736Z,7.70
2022-12-28T02:49:29.714Z,8.50
2022-12-28T02:52:06.236Z,7.93
2022-12-28T02:55:11.828Z,9.80
2022-12-28T02:58:04.635Z,9.87
2022-12-28T03:00:42.815Z,11.93
2022-12-28T03:03:22.456Z,10.10
2022-12-28T03:06:19.316Z,8.23
2022-12-28T03:08:54.740Z,9.13
2022-12-28T03:11:29.432Z,9.03
2022-12-28T03:14:03.766Z,8.73
2022-12-28T03:16:59.338Z,7.63
2022-12-28T03:19:51.110Z,7.87
2022-12-28T03:22:37.502Z,7.07
2022-12-28T03:25:28.808Z,7.47
2022-12-28T03:28:16.490Z,6.43
2022-12-28T03:31:06.640Z,7.10
2022-12-28T03:33:36.526Z,5.50
2022-12-28T03:36:11.592Z,7.30
2022-12-28T03:38:50.647Z,7.23
2022-12-28T03:41:27.864Z,7.83
2022-12-28T03:43:59.631Z,7.70
2022-12-28T03:46:30.808Z,7.83
2022-12-28T03:48:59.955Z,10.07
2022-12-28T03:51:31.616Z,7.67
2022-12-28T03:53:59.641Z,8.00
2022-12-28T03:56:29.283Z,8.83
2022-12-28T03:58:57.687Z,8.77
2022-12-28T04:01:25.788Z,8.70
2022-12-28T04:03:53.833Z,9.63
2022-12-28T04:06:21.736Z,6.90
2022-12-28T04:08:51.163Z,8.27
2022-12-28T04:11:19.115Z,7.60
2022-12-28T04:13:47.049Z,8.67
2022-12-28T04:16:15.738Z,7.43
2022-12-28T04:18:44.078Z,7.43
2022-12-28T04:21:13.488Z,7.87
2022-12-28T04:23:41.501Z,7.10
2022-12-28T04:26:12.894Z,8.03
2022-12-28T04:28:41.724Z,9.23
2022-12-28T04:31:12.559Z,8.17
2022-12-28T04:33:41.269Z,8.60
2022-12-28T04:36:12.234Z,8.70
2022-12-28T04:38:41.285Z,6.40
2022-12-28T04:41:11.785Z,8.00
2022-12-28T04:43:40.262Z,8.17
2022-12-28T04:46:11.349Z,7.50
2022-12-28T04:48:39.680Z,8.10
2022-12-28T04:51:08.916Z,7.67
2022-12-28T04:53:40.179Z,8.70
2022-12-28T04:56:10.927Z,7.93
2022-12-28T04:58:39.427Z,9.27
2022-12-28T05:01:08.652Z,9.77
2022-12-28T05:03:37.242Z,7.83
2022-12-28T05:06:07.599Z,8.87
2022-12-28T05:08:36.967Z,8.70
2022-12-28T05:11:06.848Z,10.53
2022-12-28T05:13:36.378Z,13.37
2022-12-28T05:16:04.930Z,8.23
2022-12-28T05:18:33.221Z,8.53
2022-12-28T05:21:01.650Z,8.43
2022-12-28T05:23:30.840Z,9.03
2022-12-28T05:25:59.146Z,10.87
2022-12-28T05:28:28.107Z,10.20
2022-12-28T05:31:01.685Z,10.53
2022-12-28T05:33:30.776Z,11.13
2022-12-28T05:35:59.068Z,8.83
2022-12-28T05:38:26.968Z,11.23
2022-12-28T05:40:54.925Z,22.17
2022-12-28T05:43:23.014Z,14.23
2022-12-28T05:45:50.927Z,16.40
2022-12-28T05:48:20.174Z,9.07
2022-12-28T05:50:48.091Z,16.73
2022-12-28T05:53:16.020Z,13.77
2022-12-28T05:55:43.955Z,13.27
2022-12-28T05:58:12.003Z,12.67
2022-12-28T06:00:39.960Z,9.03
2022-12-28T06:03:07.970Z,9.30
2022-12-28T06:05:37.333Z,9.20
2022-12-28T06:08:05.567Z,8.97
2022-12-28T06:10:33.464Z,8.83
2022-12-28T06:13:01.395Z,8.80
2022-12-28T06:15:29.296Z,9.00
2022-12-28T06:17:57.209Z,8.70
2022-12-28T06:20:25.096Z,8.03
2022-12-28T06:22:54.447Z,7.83
2022-12-28T06:25:22.363Z,12.30
2022-12-28T06:27:50.274Z,8.07
2022-12-28T06:30:18.371Z,9.07
2022-12-28T06:32:46.290Z,8.17
2022-12-28T06:35:14.194Z,8.93
2022-12-28T06:37:42.104Z,9.07
2022-12-28T06:40:12.560Z,8.17
2022-12-28T06:42:40.494Z,8.63
2022-12-28T06:45:09.973Z,8.23
2022-12-28T06:47:38.056Z,6.77
2022-12-28T06:50:06.503Z,8.20
2022-12-28T06:52:34.408Z,7.77
2022-12-28T06:55:02.333Z,7.47
2022-12-28T06:57:31.616Z,8.63
2022-12-28T06:59:59.557Z,7.40
2022-12-28T07:02:27.670Z,6.87
2022-12-28T07:04:55.701Z,6.70
2022-12-28T07:07:23.637Z,7.00
2022-12-28T07:09:51.581Z,6.90
2022-12-28T07:12:19.487Z,8.07
2022-12-28T07:14:48.775Z,8.13
2022-12-28T07:17:16.705Z,9.23
2022-12-28T07:19:44.617Z,9.70
2022-12-28T07:22:12.594Z,9.33
2022-12-28T07:24:40.485Z,9.50
2022-12-28T07:27:08.740Z,8.70
2022-12-28T07:29:36.629Z,10.33
2022-12-28T07:32:06.170Z,8.83
2022-12-28T07:34:34.111Z,9.03
2022-12-28T07:37:02.008Z,8.73
2022-12-28T07:39:29.892Z,8.60
2022-12-28T07:41:57.804Z,7.93
2022-12-28T07:44:29.535Z,7.43
2022-12-28T07:46:58.216Z,7.00
2022-12-28T07:49:27.459Z,7.47
2022-12-28T07:51:55.387Z,7.90
2022-12-28T07:54:23.298Z,8.93
2022-12-28T07:56:51.266Z,7.80
2022-12-28T07:59:19.273Z,7.13
2022-12-28T08:01:47.269Z,8.27
2022-12-28T08:04:16.011Z,9.93
2022-12-28T08:06:47.195Z,10.17
2022-12-28T08:09:16.218Z,8.43
2022-12-28T08:11:45.837Z,7.97
2022-12-28T08:14:14.012Z,6.87
2022-12-28T08:16:44.357Z,8.37
2022-12-28T08:19:13.615Z,8.47
2022-12-28T08:21:43.617Z,6.37
2022-12-28T08:24:16.457Z,6.70
2022-12-28T08:26:44.923Z,7.10
2022-12-28T08:29:15.659Z,7.30
2022-12-28T08:31:45.270Z,5.73
2022-12-28T08:34:16.014Z,6.40
2022-12-28T08:36:43.966Z,5.23
2022-12-28T08:39:14.506Z,7.87
2022-12-28T08:41:42.505Z,5.47
2022-12-28T08:44:10.465Z,6.57
2022-12-28T08:46:40.563Z,7.97
2022-12-28T08:49:08.710Z,10.13
2022-12-28T08:51:39.708Z,10.70
2022-12-28T08:54:08.489Z,7.47
2022-12-28T08:56:39.963Z,13.83
2022-12-28T08:59:08.197Z,5.77
2022-12-28T09:01:43.779Z,7.73
2022-12-28T09:04:15.339Z,10.10
2022-12-28T09:06:43.544Z,9.30
2022-12-28T09:09:14.370Z,7.30
2022-12-28T09:11:44.591Z,6.43
2022-12-28T09:14:22.122Z,7.63
2022-12-28T09:16:50.988Z,8.00
2022-12-28T09:19:19.101Z,8.40
2022-12-28T09:21:49.286Z,7.33
2022-12-28T09:24:17.680Z,8.67
2022-12-28T09:26:47.147Z,8.30
2022-12-28T09:29:15.289Z,7.23
2022-12-28T09:31:44.403Z,8.70
2022-12-28T09:37:02.866Z,16.73
2022-12-28T09:39:30.925Z,11.37
2022-12-28T09:42:04.266Z,7.37
2022-12-28T09:44:50.326Z,11.17
2022-12-28T09:47:28.434Z,9.37
2022-12-28T09:50:18.950Z,12.37
2022-12-28T09:52:55.375Z,9.30
2022-12-28T09:55:24.176Z,8.50
2022-12-28T09:57:56.815Z,7.83
2022-12-28T10:00:27.056Z,12.47
2022-12-28T10:02:58.640Z,27.17
2022-12-28T10:05:27.852Z,28.83
2022-12-28T10:07:58.638Z,15.27
2022-12-28T10:10:28.066Z,26.70
2022-12-28T10:13:04.568Z,16.53
2022-12-28T10:15:34.117Z,18.37
2022-12-28T10:18:02.031Z,13.87
2022-12-28T10:20:30.308Z,7.67
2022-12-28T10:22:59.818Z,9.10
2022-12-28T10:25:28.238Z,8.77
2022-12-28T10:27:58.037Z,9.07
2022-12-28T10:30:28.127Z,16.57
2022-12-28T10:33:02.690Z,13.27
2022-12-28T10:35:43.363Z,16.83
2022-12-28T10:38:22.873Z,11.27
2022-12-28T10:41:00.227Z,10.00
2022-12-28T10:43:35.318Z,12.80
2022-12-28T10:46:05.051Z,8.53
2022-12-28T10:48:37.359Z,12.20
2022-12-28T10:51:14.163Z,11.97
2022-12-28T10:53:44.267Z,13.40
2022-12-28T10:56:24.464Z,9.93
2022-12-28T10:58:55.378Z,9.13
2022-12-28T11:01:29.678Z,11.00
2022-12-28T11:04:04.682Z,9.77
2022-12-28T11:06:33.586Z,9.93
2022-12-28T11:09:06.236Z,9.13
2022-12-28T11:11:34.964Z,7.83
2022-12-28T11:14:13.577Z,9.47
2022-12-28T11:16:43.203Z,9.13
2022-12-28T11:19:12.391Z,6.40
2022-12-28T11:21:42.069Z,9.57
2022-12-28T11:24:14.757Z,7.70
2022-12-28T11:26:44.829Z,9.73
2022-12-28T11:29:16.154Z,8.70
2022-12-28T11:31:48.386Z,10.07
2022-12-28T11:34:20.853Z,8.37
2022-12-28T11:36:50.008Z,5.87
2022-12-28T11:39:48.518Z,7.57
2022-12-28T11:42:58.268Z,5.40
2022-12-28T11:45:55.943Z,7.30
2022-12-28T11:48:50.888Z,4.70
2022-12-28T11:51:21.418Z,7.20
2022-12-28T11:53:59.061Z,7.53
2022-12-28T11:56:29.068Z,7.87
2022-12-28T11:59:22.741Z,8.17
2022-12-28T12:01:57.264Z,5.57
2022-12-28T12:04:37.411Z,10.37
2022-12-28T12:07:43.728Z,9.43
2022-12-28T12:10:36.580Z,7.83
2022-12-28T12:13:44.666Z,7.70
2022-12-28T12:16:30.925Z,7.80
2022-12-28T12:19:02.376Z,10.90
2022-12-28T12:21:34.461Z,11.57
2022-12-28T12:24:11.168Z,6.63
2022-12-28T12:26:45.129Z,11.20
2022-12-28T12:29:16.792Z,11.73
2022-12-28T12:31:48.553Z,10.10
2022-12-28T12:34:24.918Z,15.23
2022-12-28T12:37:24.058Z,10.30
2022-12-28T12:40:13.180Z,12.47
2022-12-28T12:42:55.583Z,12.50
2022-12-28T12:45:33.757Z,13.57
2022-12-28T12:48:19.056Z,11.50
2022-12-28T12:51:12.741Z,16.00
2022-12-28T12:53:53.027Z,14.50
2022-12-28T12:56:35.087Z,12.67
2022-12-28T12:59:24.237Z,16.47
2022-12-28T13:01:59.894Z,12.83
2022-12-28T13:04:30.654Z,14.93
2022-12-28T13:07:02.612Z,13.03
2022-12-28T13:09:33.880Z,12.50
2022-12-28T13:12:03.222Z,12.97
2022-12-28T13:14:31.387Z,8.43
2022-12-28T13:17:01.557Z,10.43
2022-12-28T13:19:30.480Z,11.43
2022-12-28T13:22:00.054Z,9.07
2022-12-28T13:24:29.952Z,7.47
2022-12-28T13:27:00.139Z,11.73
2022-12-28T13:29:30.106Z,9.57
2022-12-28T13:31:58.216Z,10.43
2022-12-28T13:34:28.840Z,9.60
2022-12-28T13:36:59.625Z,11.17
2022-12-28T13:39:28.939Z,7.17
2022-12-28T13:41:59.776Z,10.07
2022-12-28T13:44:40.162Z,8.00
2022-12-28T13:47:13.526Z,7.23
2022-12-28T13:49:45.521Z,10.60
2022-12-28T13:52:20.189Z,9.93
2022-12-28T13:54:52.745Z,10.17
2022-12-28T14:00:12.271Z,6.73
2022-12-28T14:02:42.500Z,9.17
2022-12-28T14:05:17.665Z,8.47
2022-12-28T14:07:48.364Z,7.80
2022-12-28T14:10:17.112Z,6.90
2022-12-28T14:12:46.180Z,9.10
2022-12-28T14:15:15.013Z,6.20
2022-12-28T14:17:44.072Z,8.50
2022-12-28T14:20:12.834Z,10.83
2022-12-28T14:22:42.302Z,15.40
2022-12-28T14:25:13.748Z,33.70
2022-12-28T14:27:44.408Z,13.60
2022-12-28T14:30:23.740Z,16.27
2022-12-28T14:32:52.130Z,8.67
2022-12-28T14:35:23.350Z,9.43
2022-12-28T14:37:54.429Z,9.00
2022-12-28T14:40:31.226Z,6.67
2022-12-28T14:43:01.424Z,7.37
2022-12-28T14:46:07.010Z,7.30
2022-12-28T14:48:37.787Z,7.50
2022-12-28T14:51:07.601Z,6.37
2022-12-28T14:53:35.825Z,7.63
2022-12-28T14:56:08.133Z,9.33
2022-12-28T14:58:49.192Z,7.37
2022-12-28T15:01:20.889Z,7.00
2022-12-28T15:03:51.015Z,7.23
2022-12-28T15:06:20.016Z,7.80
2022-12-28T15:08:49.833Z,8.53
2022-12-28T15:11:20.306Z,7.80
2022-12-28T15:13:48.685Z,7.17
2022-12-28T15:16:17.846Z,6.97
2022-12-28T15:18:46.158Z,7.93
2022-12-28T15:21:15.302Z,9.13
2022-12-28T15:23:43.243Z,8.67
2022-12-28T15:26:13.042Z,8.97
2022-12-28T15:28:42.577Z,9.20
2022-12-28T15:31:13.728Z,10.70
2022-12-28T15:33:42.013Z,9.77
2022-12-28T15:36:17.383Z,8.53
2022-12-28T15:38:46.497Z,7.27
2022-12-28T15:41:32.336Z,8.73
2022-12-28T15:44:01.806Z,9.43
2022-12-28T15:46:29.778Z,7.40
2022-12-28T15:48:57.781Z,8.17
2022-12-28T15:51:25.843Z,6.47
2022-12-28T15:53:53.792Z,6.53
2022-12-28T15:56:23.466Z,5.63
2022-12-28T15:58:54.577Z,6.13
2022-12-28T16:01:25.391Z,7.33
2022-12-28T16:03:54.784Z,8.27
2022-12-28T16:06:24.076Z,8.77
2022-12-28T16:08:54.290Z,7.70
2022-12-28T16:11:23.138Z,8.00
2022-12-28T16:13:53.225Z,7.50
2022-12-28T16:16:23.509Z,6.40
2022-12-28T16:18:51.695Z,6.53
2022-12-28T16:21:19.619Z,7.87
2022-12-28T16:23:50.078Z,7.07
2022-12-28T16:26:18.084Z,9.00
2022-12-28T16:28:46.158Z,9.40
2022-12-28T16:31:27.041Z,9.23
2022-12-28T16:33:55.511Z,6.77
2022-12-28T16:36:24.286Z,5.60
2022-12-28T16:38:53.144Z,5.67
2022-12-28T16:41:22.820Z,7.80
2022-12-28T16:43:51.381Z,9.00
2022-12-28T16:46:20.009Z,9.17
2022-12-28T16:48:49.355Z,9.23
2022-12-28T16:51:17.297Z,7.70
2022-12-28T16:53:45.216Z,8.63
2022-12-28T16:56:13.130Z,8.27
2022-12-28T16:58:44.933Z,8.83
2022-12-28T17:01:15.605Z,9.50
2022-12-28T17:03:43.704Z,9.90
2022-12-28T17:06:16.367Z,10.00
2022-12-28T17:08:44.325Z,9.60
2022-12-28T17:11:13.327Z,14.33
2022-12-28T17:13:41.703Z,7.63
2022-12-28T17:16:09.854Z,10.03
2022-12-28T17:18:37.868Z,9.10
2022-12-28T17:21:07.542Z,7.03
2022-12-28T17:23:38.261Z,10.33
2022-12-28T17:26:06.358Z,9.33
2022-12-28T17:28:34.379Z,8.47
2022-12-28T17:31:07.533Z,9.53
2022-12-28T17:33:39.697Z,8.53
2022-12-28T17:36:08.853Z,9.40
2022-12-28T17:38:38.292Z,10.03
2022-12-28T17:41:11.180Z,11.57
2022-12-28T17:43:39.496Z,10.00
2022-12-28T17:46:07.631Z,9.27
2022-12-28T17:48:35.576Z,14.80
2022-12-28T17:51:11.188Z,9.50
2022-12-28T17:53:41.787Z,13.73
2022-12-28T17:56:12.603Z,8.10
2022-12-28T17:58:40.939Z,8.53
2022-12-28T18:01:09.004Z,9.53
2022-12-28T18:03:37.395Z,10.23
2022-12-28T18:06:05.686Z,17.17
2022-12-28T18:08:34.051Z,10.33
2022-12-28T18:11:03.682Z,9.90
2022-12-28T18:13:31.928Z,8.00
2022-12-28T18:15:59.880Z,9.50
2022-12-28T18:18:27.837Z,9.30
2022-12-28T18:20:59.644Z,9.27
2022-12-28T18:23:28.728Z,9.70
2022-12-28T18:26:04.196Z,11.03
2022-12-28T18:28:32.244Z,14.57
2022-12-28T18:31:02.353Z,9.53
2022-12-28T18:33:30.978Z,9.53
2022-12-28T18:35:59.578Z,10.63
2022-12-28T18:38:27.582Z,10.43
2022-12-28T18:40:58.117Z,8.90
2022-12-28T18:43:27.750Z,9.57
2022-12-28T18:45:58.483Z,9.50
2022-12-28T18:48:27.853Z,6.87
2022-12-28T18:50:56.854Z,8.87
2022-12-28T18:53:26.121Z,7.70
2022-12-28T18:55:58.603Z,7.53
2022-12-28T18:58:29.248Z,8.00
2022-12-28T19:01:03.077Z,7.23
2022-12-28T19:03:31.711Z,7.80
2022-12-28T19:06:02.803Z,7.63
2022-12-28T19:08:32.403Z,6.10
2022-12-28T19:11:00.862Z,6.63
2022-12-28T19:13:34.283Z,6.10
2022-12-28T19:16:02.386Z,9.60
2022-12-28T19:18:30.696Z,7.90
2022-12-28T19:20:59.192Z,8.03
2022-12-28T19:23:27.457Z,15.17
2022-12-28T19:25:59.611Z,8.43
2022-12-28T19:28:29.051Z,6.40
2022-12-28T19:31:02.662Z,9.00
2022-12-28T19:33:32.833Z,14.90
2022-12-28T19:36:00.910Z,8.43
2022-12-28T19:38:29.157Z,10.33
2022-12-28T19:40:57.488Z,10.83
2022-12-28T19:43:25.457Z,7.83
2022-12-28T19:46:01.618Z,8.50
2022-12-28T19:48:29.674Z,8.03
2022-12-28T19:50:57.760Z,7.80
2022-12-28T19:53:25.677Z,8.43
2022-12-28T19:55:58.324Z,7.93
2022-12-28T19:58:26.643Z,9.07
2022-12-28T20:00:56.184Z,7.43
2022-12-28T20:03:24.354Z,8.80
2022-12-28T20:05:52.367Z,8.30
2022-12-28T20:08:20.280Z,7.10
2022-12-28T20:10:56.131Z,7.93
2022-12-28T20:13:24.350Z,8.03
2022-12-28T20:15:52.580Z,7.40
2022-12-28T20:18:21.916Z,7.47
2022-12-28T20:21:18.617Z,6.57
2022-12-28T20:23:38.021Z,6.60
2022-12-28T20:26:06.353Z,6.87
2022-12-28T20:28:34.583Z,6.20
2022-12-28T20:31:03.440Z,6.80
2022-12-28T20:33:34.549Z,7.03
2022-12-28T20:36:04.274Z,7.00
2022-12-28T20:38:32.410Z,7.73
2022-12-28T20:41:08.111Z,8.17
2022-12-28T20:43:36.138Z,6.60
2022-12-28T20:46:04.513Z,6.90
2022-12-28T20:48:33.819Z,6.17
2022-12-28T20:51:03.545Z,6.23
2022-12-28T20:53:31.452Z,6.50
2022-12-28T20:56:08.505Z,6.90
2022-12-28T20:58:36.725Z,6.60
2022-12-28T21:01:05.276Z,6.23
2022-12-28T21:03:34.678Z,6.93
2022-12-28T21:06:02.756Z,6.30
2022-12-28T21:08:31.345Z,5.23
2022-12-28T21:10:59.464Z,6.77
2022-12-28T21:13:27.607Z,6.13
2022-12-28T21:15:55.640Z,7.10
2022-12-28T21:18:23.912Z,7.20
2022-12-28T21:20:57.291Z,7.10
2022-12-28T21:23:25.587Z,6.47
2022-12-28T21:25:53.568Z,6.53
2022-12-28T21:28:21.532Z,7.07
2022-12-28T21:30:54.443Z,6.53
2022-12-28T21:33:23.776Z,6.27
2022-12-28T21:36:00.884Z,6.27
2022-12-28T21:38:29.572Z,5.80
2022-12-28T21:40:58.948Z,6.90
2022-12-28T21:43:27.213Z,6.83
2022-12-28T21:46:02.275Z,7.40
2022-12-28T21:48:32.861Z,6.00
2022-12-28T21:51:31.374Z,6.93
2022-12-28T21:54:00.513Z,6.43
2022-12-28T21:56:28.752Z,7.30
2022-12-28T21:58:56.816Z,6.30
2022-12-28T22:01:42.622Z,10.33
2022-12-28T22:04:30.633Z,6.43
2022-12-28T22:07:00.304Z,7.20
2022-12-28T22:09:45.911Z,6.90
2022-12-28T22:12:32.467Z,6.60
2022-12-28T22:15:19.192Z,5.73
2022-12-28T22:17:47.328Z,5.67
2022-12-28T22:20:16.720Z,6.30
2022-12-28T22:22:46.069Z,5.97
2022-12-28T22:25:14.807Z,5.80
2022-12-28T22:27:43.051Z,6.03
2022-12-28T22:30:13.115Z,6.07
2022-12-28T22:32:41.116Z,6.70
2022-12-28T22:35:10.149Z,6.10
2022-12-28T22:37:38.372Z,6.07
2022-12-28T22:40:08.844Z,5.70
2022-12-28T22:42:42.180Z,5.87
2022-12-28T22:45:11.431Z,6.40
2022-12-28T22:47:39.737Z,6.40
2022-12-28T22:50:09.995Z,6.63
2022-12-28T22:52:37.974Z,6.07
2022-12-28T22:55:08.715Z,6.53
2022-12-28T22:57:37.634Z,5.87
2022-12-28T23:00:07.914Z,6.33
2022-12-28T23:02:36.033Z,5.60
2022-12-28T23:05:04.434Z,5.60
2022-12-28T23:07:32.634Z,9.73
2022-12-28T23:10:00.599Z,6.17
2022-12-28T23:12:30.916Z,7.07
2022-12-28T23:15:19.060Z,5.73
2022-12-28T23:17:47.913Z,6.23
2022-12-28T23:20:33.728Z,6.73
2022-12-28T23:23:27.688Z,6.93
2022-12-28T23:26:13.429Z,7.13
2022-12-28T23:28:42.816Z,6.80
2022-12-28T23:31:10.813Z,6.93
2022-12-28T23:33:38.794Z,6.40
2022-12-28T23:36:07.419Z,6.60
2022-12-28T23:38:35.344Z,7.40
2022-12-28T23:41:32.470Z,6.93
2022-12-28T23:44:01.813Z,6.73
2022-12-28T23:46:29.857Z,6.50
2022-12-28T23:48:57.847Z,11.03
2022-12-28T23:51:25.808Z,7.93
2022-12-28T23:53:53.691Z,8.07
2022-12-28T23:56:21.766Z,10.27
2022-12-28T23:58:50.768Z,9.23
